Time;durP1;ratioP1;P1;durP2;ratioP2;P2;SDS_P1;SDS_P2;PMS_P1;PMS_P2;Temp;Humidity;BMP_temperature;BMP_pressure;BME280_temperature;BME280_humidity;BME280_pressure;Samples;Min_cycle;Max_cycle;Signal;HPM_P1;HPM_P2
2021/01/26 00:02:08;;;;;;;34.37;21.10;;;;;;;;;;680690;204;1715545;-68
2021/01/26 00:04:34;;;;;;;38.80;20.97;;;;;;;;;;684725;204;914480;-67
2021/01/26 00:07:00;;;;;;;35.60;19.60;;;;;;;;;;685011;204;912540;-67
2021/01/26 00:09:26;;;;;;;43.13;20.13;;;;;;;;;;683520;204;1020315;-68
2021/01/26 00:11:52;;;;;;;42.47;20.57;;;;;;;;;;684046;204;920363;-67
2021/01/26 00:14:17;;;;;;;40.00;22.07;;;;;;;;;;679905;201;919514;-67
2021/01/26 00:16:43;;;;;;;41.03;21.33;;;;;;;;;;688905;203;918853;-68
2021/01/26 00:19:09;;;;;;;43.70;24.47;;;;;;;;;;681761;204;919901;-68
2021/01/26 00:21:35;;;;;;;38.37;22.80;;;;;;;;;;682025;205;918735;-67
2021/01/26 00:24:01;;;;;;;42.63;20.80;;;;;;;;;;686732;204;1023845;-68
2021/01/26 00:26:27;;;;;;;56.40;28.33;;;;;;;;;;684392;204;919313;-68
2021/01/26 00:28:52;;;;;;;59.50;26.67;;;;;;;;;;681799;204;918650;-68
2021/01/26 00:31:18;;;;;;;147.43;58.93;;;;;;;;;;688382;204;918330;-67
2021/01/26 00:33:44;;;;;;;112.30;48.90;;;;;;;;;;682400;202;922491;-67
2021/01/26 00:36:10;;;;;;;112.03;51.27;;;;;;;;;;684812;204;918986;-68
2021/01/26 00:38:36;;;;;;;116.90;48.07;;;;;;;;;;685404;202;919760;-67
2021/01/26 00:41:02;;;;;;;106.47;50.20;;;;;;;;;;682057;204;922013;-68
2021/01/26 00:43:27;;;;;;;109.80;53.27;;;;;;;;;;676864;204;919374;-67
2021/01/26 00:45:53;;;;;;;102.33;51.20;;;;;;;;;;684406;204;941227;-67
2021/01/26 00:48:19;;;;;;;79.67;43.07;;;;;;;;;;690838;203;919309;-68
2021/01/26 00:50:45;;;;;;;95.40;47.90;;;;;;;;;;675687;204;920132;-68
2021/01/26 00:53:11;;;;;;;118.07;50.10;;;;;;;;;;684455;203;1019248;-67
2021/01/26 00:55:38;;;;;;;121.67;50.47;;;;;;;;;;688207;202;857712;-67
2021/01/26 00:58:03;;;;;;;89.10;43.80;;;;;;;;;;684883;202;919519;-67
2021/01/26 01:00:29;;;;;;;103.50;47.47;;;;;;;;;;682679;202;920765;-68
2021/01/26 01:02:55;;;;;;;106.50;48.90;;;;;;;;;;690280;204;920388;-67
2021/01/26 01:05:21;;;;;;;113.93;50.27;;;;;;;;;;684215;204;919438;-67
2021/01/26 01:07:47;;;;;;;96.77;48.50;;;;;;;;;;684780;204;920034;-67
2021/01/26 01:10:13;;;;;;;84.43;39.67;;;;;;;;;;685501;201;919455;-68
2021/01/26 01:12:39;;;;;;;62.63;30.23;;;;;;;;;;683406;204;920516;-67
2021/01/26 01:15:05;;;;;;;68.83;34.10;;;;;;;;;;683099;201;920045;-67
2021/01/26 01:17:31;;;;;;;63.73;28.40;;;;;;;;;;682785;204;919882;-67
2021/01/26 01:19:57;;;;;;;83.10;39.17;;;;;;;;;;687506;201;919280;-68
2021/01/26 01:22:23;;;;;;;75.57;40.23;;;;;;;;;;684077;204;919264;-67
2021/01/26 01:24:49;;;;;;;76.67;35.87;;;;;;;;;;684211;204;919151;-67
2021/01/26 01:27:15;;;;;;;93.37;49.13;;;;;;;;;;687476;204;919697;-67
2021/01/26 01:29:40;;;;;;;60.20;32.53;;;;;;;;;;682583;204;1112107;-67
2021/01/26 01:32:06;;;;;;;53.87;29.10;;;;;;;;;;669961;204;1365986;-67
2021/01/26 01:34:32;;;;;;;63.37;32.37;;;;;;;;;;689052;204;919224;-67
2021/01/26 01:36:58;;;;;;;77.63;38.10;;;;;;;;;;682837;201;918117;-68
2021/01/26 01:39:24;;;;;;;73.20;36.20;;;;;;;;;;685087;204;919104;-68
2021/01/26 01:41:50;;;;;;;73.28;34.75;;;;;;;;;;685586;204;917659;-66
2021/01/26 01:44:16;;;;;;;62.37;31.10;;;;;;;;;;686853;204;918951;-69
2021/01/26 01:46:42;;;;;;;62.85;30.08;;;;;;;;;;680464;204;918148;-68
2021/01/26 01:49:08;;;;;;;45.70;23.80;;;;;;;;;;685075;204;919208;-68
2021/01/26 01:51:34;;;;;;;52.00;24.95;;;;;;;;;;683421;204;918047;-68
2021/01/26 01:54:01;;;;;;;52.57;26.50;;;;;;;;;;685009;204;919208;-68
2021/01/26 01:56:28;;;;;;;50.57;25.47;;;;;;;;;;683352;204;918877;-67
2021/01/26 01:58:55;;;;;;;45.13;24.43;;;;;;;;;;689699;202;919445;-68
2021/01/26 02:01:21;;;;;;;49.03;25.90;;;;;;;;;;685398;203;919118;-66
2021/01/26 02:03:48;;;;;;;48.40;24.63;;;;;;;;;;686713;203;919577;-68
2021/01/26 02:06:13;;;;;;;56.80;25.37;;;;;;;;;;685045;204;1021425;-67
2021/01/26 02:08:40;;;;;;;43.93;23.80;;;;;;;;;;684249;204;1020342;-68
2021/01/26 02:11:06;;;;;;;48.55;23.92;;;;;;;;;;683537;204;919427;-67
2021/01/26 02:13:32;;;;;;;48.53;23.80;;;;;;;;;;680497;204;1020692;-67
2021/01/26 02:15:57;;;;;;;54.58;25.05;;;;;;;;;;688332;204;919525;-67
2021/01/26 02:18:25;;;;;;;46.77;24.90;;;;;;;;;;682266;204;920703;-67
2021/01/26 02:20:54;;;;;;;42.07;22.30;;;;;;;;;;683915;204;920038;-67
2021/01/26 02:23:38;;;;;;;50.53;23.00;;;;;;;;;;685243;204;926988;-66
2021/01/26 02:26:21;;;;;;;54.77;27.83;;;;;;;;;;681976;204;921211;-68
2021/01/26 02:28:52;;;;;;;46.37;21.77;;;;;;;;;;685460;201;919406;-68
2021/01/26 02:31:22;;;;;;;44.30;25.47;;;;;;;;;;689339;204;1023598;-68
2021/01/26 02:33:52;;;;;;;50.57;26.07;;;;;;;;;;682345;204;919407;-68
2021/01/26 02:36:19;;;;;;;58.47;27.37;;;;;;;;;;683073;204;934612;-68
2021/01/26 02:38:50;;;;;;;66.00;28.03;;;;;;;;;;680438;204;1096340;-67
2021/01/26 02:41:31;;;;;;;53.07;27.33;;;;;;;;;;688699;204;919165;-68
2021/01/26 02:44:04;;;;;;;55.60;26.17;;;;;;;;;;689231;204;914131;-68
2021/01/26 02:46:31;;;;;;;53.50;27.63;;;;;;;;;;685014;204;920929;-69
2021/01/26 02:49:05;;;;;;;49.23;24.20;;;;;;;;;;682636;204;919427;-68
2021/01/26 02:51:34;;;;;;;46.67;24.03;;;;;;;;;;684308;204;936083;-68
2021/01/26 02:54:17;;;;;;;49.30;24.33;;;;;;;;;;685389;205;918693;-68
2021/01/26 02:56:49;;;;;;;47.03;25.40;;;;;;;;;;688861;204;919357;-67
2021/01/26 02:59:25;;;;;;;50.00;24.90;;;;;;;;;;674970;201;3747510;-68
2021/01/26 03:01:54;;;;;;;41.00;23.40;;;;;;;;;;686312;204;919517;-68
2021/01/26 03:04:20;;;;;;;50.12;26.02;;;;;;;;;;681603;204;916527;-68
2021/01/26 03:06:46;;;;;;;49.33;28.20;;;;;;;;;;683742;204;967335;-68
2021/01/26 03:09:12;;;;;;;39.30;21.90;;;;;;;;;;686719;202;916263;-68
2021/01/26 03:11:38;;;;;;;39.67;22.73;;;;;;;;;;685832;203;916099;-68
2021/01/26 03:14:09;;;;;;;34.03;21.27;;;;;;;;;;685177;204;917092;-68
2021/01/26 03:16:35;;;;;;;42.03;21.13;;;;;;;;;;685333;204;916541;-67
2021/01/26 03:19:03;;;;;;;37.50;20.73;;;;;;;;;;690704;204;1016223;-68
2021/01/26 03:21:28;;;;;;;43.78;23.58;;;;;;;;;;689489;201;920946;-68
2021/01/26 03:23:54;;;;;;;41.77;22.97;;;;;;;;;;684909;204;920310;-68
2021/01/26 03:26:20;;;;;;;36.87;20.77;;;;;;;;;;688897;201;918212;-68
2021/01/26 03:28:46;;;;;;;39.33;20.17;;;;;;;;;;686079;204;919355;-67
2021/01/26 03:31:12;;;;;;;38.97;20.05;;;;;;;;;;683527;201;918907;-68
2021/01/26 03:33:39;;;;;;;36.33;18.50;;;;;;;;;;689136;204;918362;-68
2021/01/26 03:36:05;;;;;;;34.20;18.27;;;;;;;;;;681744;201;918374;-68
2021/01/26 03:38:31;;;;;;;33.53;19.60;;;;;;;;;;682798;203;920247;-68
2021/01/26 03:40:56;;;;;;;35.00;18.47;;;;;;;;;;682222;204;916889;-67
2021/01/26 03:43:22;;;;;;;32.93;17.33;;;;;;;;;;690797;204;930828;-68
2021/01/26 03:45:49;;;;;;;34.50;16.23;;;;;;;;;;680970;204;919152;-68
2021/01/26 03:48:15;;;;;;;30.83;15.90;;;;;;;;;;684024;204;919410;-68
2021/01/26 03:50:41;;;;;;;32.58;17.80;;;;;;;;;;687118;204;919073;-68
2021/01/26 03:53:07;;;;;;;29.67;14.87;;;;;;;;;;685377;204;940248;-68
2021/01/26 03:55:37;;;;;;;28.73;15.90;;;;;;;;;;684745;204;919227;-68
2021/01/26 03:58:18;;;;;;;31.10;15.10;;;;;;;;;;686580;204;918617;-67
2021/01/26 04:00:44;;;;;;;24.10;14.70;;;;;;;;;;687349;202;919495;-68
2021/01/26 04:03:16;;;;;;;28.37;15.03;;;;;;;;;;683069;201;1021497;-68
2021/01/26 04:05:48;;;;;;;25.53;14.70;;;;;;;;;;684330;204;919025;-68
2021/01/26 04:08:13;;;;;;;24.30;13.63;;;;;;;;;;683733;204;938700;-68
2021/01/26 04:10:39;;;;;;;22.90;12.90;;;;;;;;;;687201;204;919764;-68
2021/01/26 04:13:05;;;;;;;24.43;14.07;;;;;;;;;;682159;201;918209;-68
2021/01/26 04:15:37;;;;;;;27.10;15.60;;;;;;;;;;682503;204;919258;-67
2021/01/26 04:18:03;;;;;;;34.33;16.87;;;;;;;;;;681807;204;918698;-68
2021/01/26 04:20:30;;;;;;;31.73;17.43;;;;;;;;;;690145;204;917943;-68
2021/01/26 04:22:55;;;;;;;33.67;16.90;;;;;;;;;;685313;203;918695;-68
2021/01/26 04:25:25;;;;;;;29.03;15.20;;;;;;;;;;686961;204;919082;-68
2021/01/26 04:27:51;;;;;;;24.63;15.43;;;;;;;;;;688255;203;918546;-68
2021/01/26 04:30:17;;;;;;;26.57;13.53;;;;;;;;;;684787;204;919147;-68
2021/01/26 04:32:43;;;;;;;27.17;14.70;;;;;;;;;;682839;204;918626;-67
2021/01/26 04:35:09;;;;;;;22.57;13.23;;;;;;;;;;683384;204;919636;-69
2021/01/26 04:37:35;;;;;;;28.17;15.85;;;;;;;;;;687273;202;922012;-68
2021/01/26 04:40:00;;;;;;;30.57;14.80;;;;;;;;;;683461;204;918676;-68
2021/01/26 04:42:26;;;;;;;31.30;15.55;;;;;;;;;;684605;204;920383;-68
2021/01/26 04:45:07;;;;;;;27.80;14.23;;;;;;;;;;687277;204;918422;-68
2021/01/26 04:47:38;;;;;;;31.00;14.97;;;;;;;;;;690957;204;918857;-68
2021/01/26 04:50:06;;;;;;;36.07;17.43;;;;;;;;;;672576;200;3313557;-68
2021/01/26 04:52:37;;;;;;;32.73;15.90;;;;;;;;;;685136;204;918898;-68
2021/01/26 04:55:03;;;;;;;31.63;16.60;;;;;;;;;;682179;204;918830;-68
2021/01/26 04:57:34;;;;;;;25.30;14.60;;;;;;;;;;688595;204;918863;-67
2021/01/26 05:00:06;;;;;;;31.33;16.93;;;;;;;;;;682178;204;920163;-68
2021/01/26 05:02:38;;;;;;;40.33;16.90;;;;;;;;;;685784;204;628773;-68
2021/01/26 05:05:06;;;;;;;33.33;14.43;;;;;;;;;;683918;204;619720;-68
2021/01/26 05:07:32;;;;;;;33.53;17.30;;;;;;;;;;691042;204;633193;-68
2021/01/26 05:09:59;;;;;;;29.40;17.30;;;;;;;;;;685460;201;918037;-68
2021/01/26 05:12:25;;;;;;;31.57;16.00;;;;;;;;;;683863;205;920682;-68
2021/01/26 05:14:50;;;;;;;31.87;16.77;;;;;;;;;;684331;201;918925;-68
2021/01/26 05:17:17;;;;;;;34.70;17.27;;;;;;;;;;688367;204;918920;-68
2021/01/26 05:19:49;;;;;;;33.30;18.60;;;;;;;;;;680999;204;919626;-68
2021/01/26 05:22:18;;;;;;;32.17;17.58;;;;;;;;;;684401;204;918715;-68
2021/01/26 05:24:47;;;;;;;35.60;18.70;;;;;;;;;;681167;204;918188;-68
2021/01/26 05:27:13;;;;;;;37.47;18.63;;;;;;;;;;691689;204;918187;-68
2021/01/26 05:29:39;;;;;;;32.50;16.90;;;;;;;;;;681856;204;919485;-68
2021/01/26 05:32:05;;;;;;;38.47;18.40;;;;;;;;;;684614;204;919275;-68
2021/01/26 05:34:34;;;;;;;37.77;20.00;;;;;;;;;;690623;202;919465;-67
2021/01/26 05:37:00;;;;;;;33.47;17.93;;;;;;;;;;682577;203;1669105;-68
2021/01/26 05:39:30;;;;;;;41.17;18.75;;;;;;;;;;686365;204;919283;-67
2021/01/26 05:41:56;;;;;;;34.80;18.13;;;;;;;;;;683429;203;949616;-67
2021/01/26 05:44:22;;;;;;;33.63;16.33;;;;;;;;;;690697;204;919707;-67
2021/01/26 05:46:48;;;;;;;35.13;19.57;;;;;;;;;;681891;204;952605;-67
2021/01/26 05:49:15;;;;;;;37.50;18.50;;;;;;;;;;684306;202;1021308;-67
2021/01/26 05:51:39;;;;;;;30.33;16.67;;;;;;;;;;687739;204;919899;-67
2021/01/26 05:54:07;;;;;;;34.50;17.13;;;;;;;;;;684117;204;918823;-68
2021/01/26 05:56:33;;;;;;;41.50;21.57;;;;;;;;;;680186;201;996746;-68
2021/01/26 05:58:59;;;;;;;43.13;20.67;;;;;;;;;;687626;204;919268;-67
2021/01/26 06:01:25;;;;;;;47.00;23.90;;;;;;;;;;685826;201;918598;-68
2021/01/26 06:03:57;;;;;;;38.88;20.60;;;;;;;;;;683399;204;919140;-68
2021/01/26 06:06:22;;;;;;;35.80;19.40;;;;;;;;;;680262;204;973134;-68
2021/01/26 06:08:48;;;;;;;31.65;17.75;;;;;;;;;;687706;204;919503;-68
2021/01/26 06:11:14;;;;;;;38.83;18.50;;;;;;;;;;681580;204;919276;-68
2021/01/26 06:13:40;;;;;;;36.72;19.85;;;;;;;;;;685785;204;917650;-68
2021/01/26 06:16:07;;;;;;;30.17;17.90;;;;;;;;;;688760;204;918424;-65
2021/01/26 06:18:33;;;;;;;39.07;18.90;;;;;;;;;;687166;204;915158;-67
2021/01/26 06:21:03;;;;;;;32.13;18.10;;;;;;;;;;683659;204;919879;-67
2021/01/26 06:23:29;;;;;;;32.43;17.30;;;;;;;;;;683263;204;920050;-67
2021/01/26 06:25:55;;;;;;;35.73;18.67;;;;;;;;;;689123;204;916941;-68
2021/01/26 06:28:20;;;;;;;31.73;17.77;;;;;;;;;;683102;202;919251;-67
2021/01/26 06:31:01;;;;;;;35.50;18.60;;;;;;;;;;687924;204;641042;-67
2021/01/26 06:33:43;;;;;;;38.42;19.55;;;;;;;;;;683682;200;915165;-67
2021/01/26 06:36:10;;;;;;;38.97;20.10;;;;;;;;;;683506;203;914129;-68
2021/01/26 06:38:52;;;;;;;33.90;19.70;;;;;;;;;;685387;203;918803;-69
2021/01/26 06:41:24;;;;;;;33.40;19.30;;;;;;;;;;687800;204;918283;-69
2021/01/26 06:44:10;;;;;;;41.60;20.83;;;;;;;;;;688744;204;936487;-68
2021/01/26 06:46:36;;;;;;;33.30;18.43;;;;;;;;;;689763;203;918347;-68
2021/01/26 06:49:17;;;;;;;32.37;18.67;;;;;;;;;;683561;204;917910;-68
2021/01/26 06:51:46;;;;;;;32.50;17.80;;;;;;;;;;686908;204;917960;-68
2021/01/26 06:54:18;;;;;;;38.17;22.50;;;;;;;;;;681221;202;918825;-68
2021/01/26 06:56:50;;;;;;;38.57;20.53;;;;;;;;;;687377;204;1019259;-68
2021/01/26 06:59:30;;;;;;;37.17;20.83;;;;;;;;;;688897;201;627367;-68
2021/01/26 07:01:56;;;;;;;40.90;19.00;;;;;;;;;;693980;204;644711;-68
2021/01/26 07:04:28;;;;;;;28.67;18.60;;;;;;;;;;680119;204;1273054;-67
2021/01/26 07:06:54;;;;;;;45.03;21.53;;;;;;;;;;684358;204;916968;-69
2021/01/26 07:09:36;;;;;;;35.03;20.10;;;;;;;;;;686585;204;914866;-68
2021/01/26 07:12:20;;;;;;;39.30;20.30;;;;;;;;;;692332;202;919309;-68
2021/01/26 07:15:05;;;;;;;35.70;19.55;;;;;;;;;;687123;199;917574;-67
2021/01/26 07:17:47;;;;;;;42.90;22.30;;;;;;;;;;681711;204;919148;-69
2021/01/26 07:20:12;;;;;;;36.63;22.37;;;;;;;;;;683188;201;919147;-68
2021/01/26 07:22:47;;;;;;;39.27;20.37;;;;;;;;;;689027;204;919057;-68
2021/01/26 07:25:24;;;;;;;38.65;21.80;;;;;;;;;;683713;204;919202;-68
2021/01/26 07:28:05;;;;;;;41.67;23.47;;;;;;;;;;685794;204;919376;-68
2021/01/26 07:30:32;;;;;;;42.80;23.53;;;;;;;;;;679737;202;918795;-68
2021/01/26 07:33:13;;;;;;;42.07;24.00;;;;;;;;;;682004;205;1021798;-68
2021/01/26 07:35:41;;;;;;;47.75;23.52;;;;;;;;;;679922;204;1021611;-68
2021/01/26 07:38:07;;;;;;;52.93;24.67;;;;;;;;;;689041;204;919719;-69
2021/01/26 07:40:43;;;;;;;52.43;23.53;;;;;;;;;;681090;204;918343;-68
2021/01/26 07:43:15;;;;;;;40.00;22.00;;;;;;;;;;683729;204;919278;-68
2021/01/26 07:45:46;;;;;;;45.60;24.90;;;;;;;;;;679409;204;1319020;-68
2021/01/26 07:48:12;;;;;;;44.57;22.63;;;;;;;;;;682158;204;1021067;-67
2021/01/26 07:50:40;;;;;;;44.27;22.40;;;;;;;;;;686596;201;919638;-68
2021/01/26 07:53:06;;;;;;;40.07;22.40;;;;;;;;;;686310;204;919442;-67
2021/01/26 07:55:33;;;;;;;38.63;22.57;;;;;;;;;;681617;204;1020422;-67
2021/01/26 07:57:59;;;;;;;44.53;24.77;;;;;;;;;;689386;203;918222;-68
2021/01/26 08:00:24;;;;;;;45.40;23.00;;;;;;;;;;684908;204;918665;-68
2021/01/26 08:02:51;;;;;;;42.50;23.17;;;;;;;;;;685304;204;919191;-68
2021/01/26 08:05:17;;;;;;;44.57;23.90;;;;;;;;;;689259;204;918890;-68
2021/01/26 08:07:43;;;;;;;46.93;25.87;;;;;;;;;;668641;202;4611565;-68
2021/01/26 08:10:09;;;;;;;43.60;19.53;;;;;;;;;;683121;204;1131842;-68
2021/01/26 08:12:38;;;;;;;36.33;18.30;;;;;;;;;;682132;201;1021451;-68
2021/01/26 08:15:10;;;;;;;36.90;19.63;;;;;;;;;;690080;204;918900;-69
2021/01/26 08:17:36;;;;;;;34.47;20.57;;;;;;;;;;683391;202;936692;-68
2021/01/26 08:20:03;;;;;;;37.80;20.10;;;;;;;;;;686600;204;918819;-69
2021/01/26 08:22:30;;;;;;;40.30;21.48;;;;;;;;;;681394;202;919573;-69
2021/01/26 08:24:58;;;;;;;28.23;17.90;;;;;;;;;;687775;204;918892;-69
2021/01/26 08:27:24;;;;;;;36.00;17.40;;;;;;;;;;683187;204;919412;-69
2021/01/26 08:29:50;;;;;;;35.03;17.90;;;;;;;;;;683739;204;919269;-69
2021/01/26 08:32:37;;;;;;;29.13;17.10;;;;;;;;;;687304;204;918131;-69
2021/01/26 08:35:03;;;;;;;33.70;20.77;;;;;;;;;;688001;204;919264;-69
2021/01/26 08:37:35;;;;;;;32.30;19.20;;;;;;;;;;682819;202;918812;-69
2021/01/26 08:40:01;;;;;;;35.60;18.23;;;;;;;;;;684308;204;919186;-70
2021/01/26 08:42:32;;;;;;;30.70;17.10;;;;;;;;;;682442;204;919154;-69
2021/01/26 08:44:58;;;;;;;30.67;16.60;;;;;;;;;;688638;204;919430;-70
2021/01/26 08:47:30;;;;;;;33.97;20.90;;;;;;;;;;681113;204;919097;-70
2021/01/26 08:49:56;;;;;;;44.97;19.20;;;;;;;;;;684310;204;919352;-71
2021/01/26 08:52:31;;;;;;;31.30;17.90;;;;;;;;;;680564;202;958340;-71
2021/01/26 08:54:57;;;;;;;35.55;18.20;;;;;;;;;;685028;204;923707;-69
2021/01/26 08:57:43;;;;;;;27.10;15.87;;;;;;;;;;687588;202;919323;-72
2021/01/26 09:00:28;;;;;;;31.20;17.03;;;;;;;;;;691794;204;918330;-72
2021/01/26 09:02:53;;;;;;;31.57;17.40;;;;;;;;;;688470;202;919477;-72
2021/01/26 09:05:40;;;;;;;28.27;16.43;;;;;;;;;;683936;204;919256;-72
2021/01/26 09:08:06;;;;;;;34.15;18.17;;;;;;;;;;682559;203;919356;-73
2021/01/26 09:10:35;;;;;;;32.70;18.40;;;;;;;;;;686934;203;918735;-73
2021/01/26 09:13:06;;;;;;;31.53;16.60;;;;;;;;;;682690;201;1274902;-74
2021/01/26 09:15:30;;;;;;;35.60;17.57;;;;;;;;;;689126;203;1020438;-75
2021/01/26 09:17:56;;;;;;;29.17;18.53;;;;;;;;;;684586;204;920554;-74
2021/01/26 09:20:22;;;;;;;42.97;18.70;;;;;;;;;;685071;204;919958;-76
2021/01/26 09:22:48;;;;;;;28.10;15.47;;;;;;;;;;689213;204;1021443;-76
2021/01/26 09:25:19;;;;;;;30.02;18.12;;;;;;;;;;684127;204;919015;-75
2021/01/26 09:27:44;;;;;;;26.70;15.40;;;;;;;;;;684364;204;1017198;-75
2021/01/26 09:30:12;;;;;;;33.90;17.27;;;;;;;;;;679418;204;987706;-75
2021/01/26 09:32:38;;;;;;;27.93;15.63;;;;;;;;;;687099;204;919009;-75
2021/01/26 09:35:06;;;;;;;34.50;16.80;;;;;;;;;;682309;204;1141256;-74
2021/01/26 09:37:34;;;;;;;31.83;18.07;;;;;;;;;;684318;204;918901;-74
2021/01/26 09:40:04;;;;;;;28.87;15.02;;;;;;;;;;687197;204;917455;-72
2021/01/26 09:42:30;;;;;;;27.40;16.17;;;;;;;;;;691772;204;918853;-72
2021/01/26 09:44:56;;;;;;;27.43;16.50;;;;;;;;;;681709;204;918778;-71
2021/01/26 09:47:22;;;;;;;26.08;15.18;;;;;;;;;;681067;204;945439;-71
2021/01/26 09:49:48;;;;;;;32.70;15.80;;;;;;;;;;686638;204;919087;-71
2021/01/26 09:52:14;;;;;;;26.17;16.60;;;;;;;;;;684717;204;920221;-70
2021/01/26 09:54:40;;;;;;;26.17;15.77;;;;;;;;;;684030;204;919847;-69
2021/01/26 09:57:06;;;;;;;28.53;16.20;;;;;;;;;;688037;204;918280;-69
2021/01/26 09:59:34;;;;;;;27.27;16.37;;;;;;;;;;685224;204;920788;-68
2021/01/26 10:01:58;;;;;;;25.73;14.80;;;;;;;;;;681681;201;922977;-68
2021/01/26 10:04:23;;;;;;;28.27;13.43;;;;;;;;;;688250;204;1018234;-68
2021/01/26 10:06:51;;;;;;;22.87;14.80;;;;;;;;;;681947;201;918689;-67
2021/01/26 10:09:19;;;;;;;19.10;10.90;;;;;;;;;;684016;204;911538;-68
2021/01/26 10:11:45;;;;;;;22.47;11.80;;;;;;;;;;681838;201;913899;-69
2021/01/26 10:14:15;;;;;;;21.33;13.60;;;;;;;;;;689412;204;913002;-69
2021/01/26 10:16:40;;;;;;;21.77;12.90;;;;;;;;;;683193;204;914813;-67
2021/01/26 10:19:08;;;;;;;18.67;12.60;;;;;;;;;;685715;204;909202;-69
2021/01/26 10:21:34;;;;;;;13.77;8.60;;;;;;;;;;688319;203;909300;-69
2021/01/26 10:24:01;;;;;;;19.93;11.50;;;;;;;;;;682461;203;919158;-69
2021/01/26 10:26:27;;;;;;;15.77;11.10;;;;;;;;;;682635;204;918758;-69
2021/01/26 10:28:57;;;;;;;20.57;11.50;;;;;;;;;;684422;204;919623;-69
2021/01/26 10:31:23;;;;;;;14.50;7.83;;;;;;;;;;686505;202;919524;-69
2021/01/26 10:33:49;;;;;;;20.27;12.67;;;;;;;;;;683873;204;918870;-70
2021/01/26 10:36:17;;;;;;;15.83;10.00;;;;;;;;;;682050;204;919223;-70
2021/01/26 10:38:43;;;;;;;19.30;11.13;;;;;;;;;;688732;204;921136;-71
2021/01/26 10:41:10;;;;;;;21.90;12.53;;;;;;;;;;693154;204;619891;-71
2021/01/26 10:43:36;;;;;;;13.67;9.40;;;;;;;;;;674652;201;2823919;-72
2021/01/26 10:46:02;;;;;;;17.33;11.40;;;;;;;;;;683300;204;955652;-72
2021/01/26 10:48:29;;;;;;;15.40;10.13;;;;;;;;;;686645;201;920916;-74
2021/01/26 10:50:55;;;;;;;14.13;10.87;;;;;;;;;;686619;204;903921;-74
2021/01/26 10:53:27;;;;;;;13.00;8.90;;;;;;;;;;680972;201;919551;-75
2021/01/26 10:55:54;;;;;;;10.97;8.83;;;;;;;;;;685076;204;934457;-74
2021/01/26 10:58:19;;;;;;;13.40;9.57;;;;;;;;;;684048;201;875353;-76
2021/01/26 11:00:44;;;;;;;13.47;9.47;;;;;;;;;;684601;204;918714;-75
2021/01/26 11:03:10;;;;;;;15.18;9.02;;;;;;;;;;680779;204;1236806;-75
2021/01/26 11:05:36;;;;;;;14.47;8.93;;;;;;;;;;688719;204;918514;-75
2021/01/26 11:08:02;;;;;;;12.90;7.93;;;;;;;;;;682533;204;853574;-75
2021/01/26 11:10:28;;;;;;;15.03;9.57;;;;;;;;;;684861;204;873295;-75
2021/01/26 11:12:54;;;;;;;12.43;8.70;;;;;;;;;;687280;204;918701;-75
2021/01/26 11:15:26;;;;;;;11.10;7.27;;;;;;;;;;686297;204;771076;-77
2021/01/26 11:17:49;;;;;;;13.50;6.93;;;;;;;;;;683550;204;933145;-77
2021/01/26 11:20:15;;;;;;;15.87;7.80;;;;;;;;;;685173;204;911067;-79
2021/01/26 11:22:41;;;;;;;9.35;7.00;;;;;;;;;;689715;204;918642;-79
2021/01/26 11:25:07;;;;;;;13.13;8.37;;;;;;;;;;677194;204;2118787;-79
2021/01/26 11:27:33;;;;;;;11.03;6.90;;;;;;;;;;684750;204;919118;-78
2021/01/26 11:29:59;;;;;;;9.07;5.87;;;;;;;;;;686306;204;918780;-77
2021/01/26 11:32:24;;;;;;;11.60;6.20;;;;;;;;;;687764;202;713766;-77
2021/01/26 11:34:50;;;;;;;12.20;6.30;;;;;;;;;;684023;202;919006;-78
2021/01/26 11:37:16;;;;;;;10.00;6.33;;;;;;;;;;691500;204;918651;-76
2021/01/26 11:39:42;;;;;;;10.03;6.30;;;;;;;;;;685185;202;818511;-75
2021/01/26 11:42:08;;;;;;;11.30;6.73;;;;;;;;;;686994;204;943881;-75
2021/01/26 11:44:34;;;;;;;8.57;4.97;;;;;;;;;;690208;204;626927;-74
2021/01/26 11:46:59;;;;;;;8.40;5.35;;;;;;;;;;686838;204;918951;-75
2021/01/26 11:49:25;;;;;;;17.60;7.30;;;;;;;;;;681192;201;1021254;-74
2021/01/26 11:51:51;;;;;;;10.37;7.60;;;;;;;;;;683915;204;918719;-75
2021/01/26 11:54:17;;;;;;;13.00;8.10;;;;;;;;;;689355;201;919619;-73
2021/01/26 11:56:43;;;;;;;12.17;7.30;;;;;;;;;;683649;204;887302;-74
2021/01/26 11:59:09;;;;;;;11.35;6.80;;;;;;;;;;681822;204;1021514;-74
2021/01/26 12:01:35;;;;;;;11.73;7.70;;;;;;;;;;688453;204;919777;-73
2021/01/26 12:04:01;;;;;;;10.98;7.50;;;;;;;;;;684378;204;919443;-75
2021/01/26 12:06:27;;;;;;;10.80;6.73;;;;;;;;;;685183;204;917554;-73
2021/01/26 12:08:52;;;;;;;12.57;7.70;;;;;;;;;;686699;204;917811;-74
2021/01/26 12:11:18;;;;;;;12.50;7.70;;;;;;;;;;681002;204;1039869;-75
2021/01/26 12:13:44;;;;;;;13.20;7.27;;;;;;;;;;684298;204;919055;-75
2021/01/26 12:16:10;;;;;;;10.87;7.07;;;;;;;;;;686670;204;919217;-73
2021/01/26 12:18:36;;;;;;;11.27;8.33;;;;;;;;;;685014;204;816796;-74
2021/01/26 12:21:02;;;;;;;14.30;9.43;;;;;;;;;;682047;204;919094;-75
2021/01/26 12:23:28;;;;;;;17.20;7.57;;;;;;;;;;684342;204;919163;-74
2021/01/26 12:25:57;;;;;;;12.83;7.50;;;;;;;;;;686949;204;916918;-75
2021/01/26 12:28:21;;;;;;;11.77;6.90;;;;;;;;;;686758;204;972017;-76
2021/01/26 12:30:46;;;;;;;11.37;8.20;;;;;;;;;;685502;204;816066;-72
2021/01/26 12:33:12;;;;;;;8.80;7.50;;;;;;;;;;688904;204;918465;-72
2021/01/26 12:35:37;;;;;;;12.97;8.47;;;;;;;;;;681613;204;1024139;-72
2021/01/26 12:38:03;;;;;;;13.30;9.33;;;;;;;;;;681636;204;1021278;-73
2021/01/26 12:40:29;;;;;;;12.52;8.13;;;;;;;;;;687101;204;918833;-74
2021/01/26 12:42:55;;;;;;;13.73;9.03;;;;;;;;;;682588;201;918947;-73
2021/01/26 12:45:21;;;;;;;13.33;8.23;;;;;;;;;;684171;203;919477;-74
2021/01/26 12:47:47;;;;;;;15.90;9.37;;;;;;;;;;684668;201;918084;-73
2021/01/26 12:50:13;;;;;;;11.40;7.93;;;;;;;;;;687998;204;921684;-74
2021/01/26 12:52:39;;;;;;;13.90;8.60;;;;;;;;;;685338;204;918621;-74
2021/01/26 12:55:05;;;;;;;12.98;8.25;;;;;;;;;;684585;204;918024;-74
2021/01/26 12:57:31;;;;;;;12.50;8.85;;;;;;;;;;687333;204;919047;-73
2021/01/26 12:59:57;;;;;;;14.43;8.03;;;;;;;;;;685129;204;919378;-72
2021/01/26 13:02:23;;;;;;;25.95;11.00;;;;;;;;;;681049;204;918611;-72
2021/01/26 13:04:49;;;;;;;10.07;7.27;;;;;;;;;;688896;204;918334;-72
2021/01/26 13:07:16;;;;;;;13.13;7.70;;;;;;;;;;681182;203;1049711;-72
2021/01/26 13:09:41;;;;;;;12.40;9.67;;;;;;;;;;684472;204;918580;-72
2021/01/26 13:12:07;;;;;;;14.00;8.43;;;;;;;;;;690437;204;918197;-72
2021/01/26 13:14:33;;;;;;;13.53;8.17;;;;;;;;;;681405;204;919243;-72
2021/01/26 13:16:58;;;;;;;14.20;8.70;;;;;;;;;;682305;204;930684;-71
2021/01/26 13:19:24;;;;;;;12.53;7.83;;;;;;;;;;681879;204;1021725;-72
2021/01/26 13:21:51;;;;;;;17.23;8.23;;;;;;;;;;689416;204;919040;-72
2021/01/26 13:24:16;;;;;;;18.97;10.17;;;;;;;;;;683574;201;921450;-72
2021/01/26 13:26:42;;;;;;;12.63;8.37;;;;;;;;;;684455;204;918963;-72
2021/01/26 13:29:08;;;;;;;16.47;10.40;;;;;;;;;;686056;204;1018197;-72
2021/01/26 13:31:33;;;;;;;16.80;10.33;;;;;;;;;;684499;204;918624;-72
2021/01/26 13:33:59;;;;;;;19.20;11.30;;;;;;;;;;680562;204;922069;-72
2021/01/26 13:36:25;;;;;;;11.73;7.33;;;;;;;;;;686086;204;918887;-72
2021/01/26 13:38:51;;;;;;;11.13;7.73;;;;;;;;;;678390;205;910902;-73
2021/01/26 13:41:17;;;;;;;16.77;9.67;;;;;;;;;;685733;204;917941;-72
2021/01/26 13:43:43;;;;;;;15.02;8.85;;;;;;;;;;685663;201;918034;-71
2021/01/26 13:46:09;;;;;;;15.03;9.27;;;;;;;;;;686473;204;919421;-73
2021/01/26 13:48:35;;;;;;;14.13;9.47;;;;;;;;;;683058;204;922401;-72
2021/01/26 13:51:01;;;;;;;10.70;6.90;;;;;;;;;;681898;202;921263;-73
2021/01/26 13:53:27;;;;;;;10.83;7.57;;;;;;;;;;688540;204;916268;-72
2021/01/26 13:55:53;;;;;;;15.40;9.30;;;;;;;;;;683089;202;916857;-72
2021/01/26 13:58:19;;;;;;;14.90;8.63;;;;;;;;;;684172;203;915154;-73
2021/01/26 14:00:44;;;;;;;13.15;9.60;;;;;;;;;;688583;201;914239;-72
2021/01/26 14:03:10;;;;;;;18.00;8.83;;;;;;;;;;687052;204;919602;-73
2021/01/26 14:05:36;;;;;;;14.45;9.80;;;;;;;;;;681522;204;1021073;-73
2021/01/26 14:08:02;;;;;;;17.30;10.27;;;;;;;;;;689325;204;918598;-72
2021/01/26 14:10:29;;;;;;;15.20;9.73;;;;;;;;;;681347;204;1021657;-73